sensor_id;sensor_type;location;lat;lon;timestamp;pressure;altitude;pressure_sealevel;temperature;humidity
49063;BME280;34876;51.464;-0.150;2022-09-21T00:08:46;102599.88;;;20.60;44.01
49063;BME280;34876;51.464;-0.150;2022-09-21T00:17:37;102597.72;;;20.59;44.07
49063;BME280;34876;51.464;-0.150;2022-09-21T00:24:50;102591.89;;;20.56;44.26
49063;BME280;34876;51.464;-0.150;2022-09-21T00:31:57;102594.96;;;20.59;44.17
49063;BME280;34876;51.464;-0.150;2022-09-21T00:39:10;102601.34;;;20.63;44.12
49063;BME280;34876;51.464;-0.150;2022-09-21T00:46:28;102604.67;;;20.60;44.25
49063;BME280;34876;51.464;-0.150;2022-09-21T00:54:03;102608.05;;;20.55;44.43
49063;BME280;34876;51.464;-0.150;2022-09-21T01:02:28;102602.95;;;20.54;44.51
49063;BME280;34876;51.464;-0.150;2022-09-21T01:10:12;102600.25;;;20.54;44.50
49063;BME280;34876;51.464;-0.150;2022-09-21T01:17:51;102604.04;;;20.57;44.46
49063;BME280;34876;51.464;-0.150;2022-09-21T01:25:57;102601.09;;;20.57;44.47
49063;BME280;34876;51.464;-0.150;2022-09-21T01:33:13;102604.71;;;20.62;44.34
49063;BME280;34876;51.464;-0.150;2022-09-21T01:41:13;102605.44;;;20.60;44.36
49063;BME280;34876;51.464;-0.150;2022-09-21T01:48:43;102607.30;;;20.62;44.34
49063;BME280;34876;51.464;-0.150;2022-09-21T01:56:51;102601.76;;;20.59;44.39
49063;BME280;34876;51.464;-0.150;2022-09-21T02:04:17;102598.70;;;20.60;44.39
49063;BME280;34876;51.464;-0.150;2022-09-21T02:11:51;102595.70;;;20.59;44.40
49063;BME280;34876;51.464;-0.150;2022-09-21T02:19:20;102594.92;;;20.60;44.37
49063;BME280;34876;51.464;-0.150;2022-09-21T02:27:23;102594.27;;;20.58;44.42
49063;BME280;34876;51.464;-0.150;2022-09-21T02:35:35;102590.98;;;20.59;44.42
49063;BME280;34876;51.464;-0.150;2022-09-21T02:43:32;102587.09;;;20.58;44.44
49063;BME280;34876;51.464;-0.150;2022-09-21T02:50:53;102584.61;;;20.58;44.43
49063;BME280;34876;51.464;-0.150;2022-09-21T02:58:44;102586.43;;;20.57;44.44
49063;BME280;34876;51.464;-0.150;2022-09-21T03:06:08;102581.90;;;20.58;44.43
49063;BME280;34876;51.464;-0.150;2022-09-21T03:13:35;102571.88;;;20.56;44.47
49063;BME280;34876;51.464;-0.150;2022-09-21T03:21:38;102569.07;;;20.56;44.47
49063;BME280;34876;51.464;-0.150;2022-09-21T03:29:18;102572.39;;;20.55;44.48
49063;BME280;34876;51.464;-0.150;2022-09-21T03:36:48;102575.58;;;20.56;44.46
49063;BME280;34876;51.464;-0.150;2022-09-21T03:43:47;102575.68;;;20.54;44.50
49063;BME280;34876;51.464;-0.150;2022-09-21T03:51:51;102576.46;;;20.53;44.52
49063;BME280;34876;51.464;-0.150;2022-09-21T03:59:08;102573.07;;;20.54;44.52
49063;BME280;34876;51.464;-0.150;2022-09-21T04:06:39;102567.40;;;20.52;44.54
49063;BME280;34876;51.464;-0.150;2022-09-21T04:15:01;102564.44;;;20.51;44.55
49063;BME280;34876;51.464;-0.150;2022-09-21T04:22:21;102554.49;;;20.51;44.55
49063;BME280;34876;51.464;-0.150;2022-09-21T04:29:41;102545.25;;;20.51;44.58
49063;BME280;34876;51.464;-0.150;2022-09-21T04:36:51;102547.78;;;20.51;44.59
49063;BME280;34876;51.464;-0.150;2022-09-21T04:43:51;102549.28;;;20.49;44.62
49063;BME280;34876;51.464;-0.150;2022-09-21T04:51:46;102545.87;;;20.49;44.61
49063;BME280;34876;51.464;-0.150;2022-09-21T04:59:38;102546.76;;;20.48;44.64
49063;BME280;34876;51.464;-0.150;2022-09-21T05:08:01;102542.19;;;20.47;44.66
49063;BME280;34876;51.464;-0.150;2022-09-21T05:15:09;102539.37;;;20.47;44.63
49063;BME280;34876;51.464;-0.150;2022-09-21T05:22:46;102538.97;;;20.46;44.68
49063;BME280;34876;51.464;-0.150;2022-09-21T05:30:39;102537.47;;;20.47;44.65
49063;BME280;34876;51.464;-0.150;2022-09-21T05:38:15;102541.18;;;20.45;44.69
49063;BME280;34876;51.464;-0.150;2022-09-21T05:45:22;102546.99;;;20.45;44.71
49063;BME280;34876;51.464;-0.150;2022-09-21T05:53:47;102552.49;;;20.43;44.77
49063;BME280;34876;51.464;-0.150;2022-09-21T06:01:58;102553.55;;;20.42;44.80
49063;BME280;34876;51.464;-0.150;2022-09-21T06:09:08;102553.07;;;20.43;44.78
49063;BME280;34876;51.464;-0.150;2022-09-21T06:16:59;102555.65;;;20.43;44.79
49063;BME280;34876;51.464;-0.150;2022-09-21T06:25:29;102567.34;;;20.41;44.84
49063;BME280;34876;51.464;-0.150;2022-09-21T06:32:58;102571.00;;;20.43;44.79
49063;BME280;34876;51.464;-0.150;2022-09-21T06:41:00;102572.68;;;20.43;44.80
49063;BME280;34876;51.464;-0.150;2022-09-21T06:48:59;102571.81;;;20.43;44.79
49063;BME280;34876;51.464;-0.150;2022-09-21T06:56:42;102575.04;;;20.43;44.82
49063;BME280;34876;51.464;-0.150;2022-09-21T07:04:49;102577.18;;;20.42;44.85
49063;BME280;34876;51.464;-0.150;2022-09-21T07:11:56;102578.87;;;20.42;44.87
49063;BME280;34876;51.464;-0.150;2022-09-21T07:19:16;102577.28;;;20.43;44.86
49063;BME280;34876;51.464;-0.150;2022-09-21T07:26:48;102576.44;;;20.43;44.86
49063;BME280;34876;51.464;-0.150;2022-09-21T07:34:52;102577.18;;;20.44;44.85
49063;BME280;34876;51.464;-0.150;2022-09-21T07:41:59;102575.34;;;20.45;44.81
49063;BME280;34876;51.464;-0.150;2022-09-21T07:49:12;102574.81;;;20.46;44.82
49063;BME280;34876;51.464;-0.150;2022-09-21T07:57:09;102578.63;;;20.46;44.80
49063;BME280;34876;51.464;-0.150;2022-09-21T08:05:09;102578.41;;;20.47;44.76
49063;BME280;34876;51.464;-0.150;2022-09-21T08:13:27;102580.98;;;20.46;44.82
49063;BME280;34876;51.464;-0.150;2022-09-21T08:20:32;102589.32;;;20.50;44.71
49063;BME280;34876;51.464;-0.150;2022-09-21T08:27:32;102586.74;;;20.49;44.76
49063;BME280;34876;51.464;-0.150;2022-09-21T08:34:27;102584.55;;;20.49;44.76
49063;BME280;34876;51.464;-0.150;2022-09-21T08:42:32;102585.34;;;20.50;44.79
49063;BME280;34876;51.464;-0.150;2022-09-21T08:49:34;102587.03;;;20.51;44.76
49063;BME280;34876;51.464;-0.150;2022-09-21T08:57:07;102589.18;;;20.54;44.75
49063;BME280;34876;51.464;-0.150;2022-09-21T09:04:22;102591.47;;;20.55;44.74
49063;BME280;34876;51.464;-0.150;2022-09-21T09:12:22;102597.71;;;20.56;44.72
49063;BME280;34876;51.464;-0.150;2022-09-21T09:19:09;102597.54;;;20.58;44.69
49063;BME280;34876;51.464;-0.150;2022-09-21T09:26:01;102594.75;;;20.57;44.70
49063;BME280;34876;51.464;-0.150;2022-09-21T09:34:10;102599.65;;;20.59;44.70
49063;BME280;34876;51.464;-0.150;2022-09-21T09:42:06;102598.14;;;20.62;44.64
49063;BME280;34876;51.464;-0.150;2022-09-21T09:50:01;102600.78;;;20.63;44.63
49063;BME280;34876;51.464;-0.150;2022-09-21T09:57:27;102603.53;;;20.65;44.60
49063;BME280;34876;51.464;-0.150;2022-09-21T10:04:33;102596.84;;;20.66;44.56
49063;BME280;34876;51.464;-0.150;2022-09-21T10:12:33;102593.26;;;20.71;44.44
49063;BME280;34876;51.464;-0.150;2022-09-21T10:20:55;102591.65;;;20.71;44.42
49063;BME280;34876;51.464;-0.150;2022-09-21T10:28:30;102587.27;;;20.73;44.36
49063;BME280;34876;51.464;-0.150;2022-09-21T10:36:24;102582.20;;;20.73;44.34
49063;BME280;34876;51.464;-0.150;2022-09-21T10:44:45;102577.00;;;20.79;44.22
49063;BME280;34876;51.464;-0.150;2022-09-21T10:53:22;102572.50;;;20.77;44.19
49063;BME280;34876;51.464;-0.150;2022-09-21T11:00:51;102574.62;;;20.87;43.92
49063;BME280;34876;51.464;-0.150;2022-09-21T11:09:04;102573.27;;;20.87;43.92
49063;BME280;34876;51.464;-0.150;2022-09-21T11:16:48;102573.74;;;21.04;43.48
49063;BME280;34876;51.464;-0.150;2022-09-21T11:25:19;102567.47;;;21.03;43.44
49063;BME280;34876;51.464;-0.150;2022-09-21T11:33:13;102559.15;;;21.03;43.44
49063;BME280;34876;51.464;-0.150;2022-09-21T11:40:58;102555.58;;;21.10;43.26
49063;BME280;34876;51.464;-0.150;2022-09-21T11:49:15;102553.68;;;20.86;41.63
49063;BME280;34876;51.464;-0.150;2022-09-21T11:57:09;102545.52;;;21.08;43.23
49063;BME280;34876;51.464;-0.150;2022-09-21T12:05:44;102536.76;;;21.08;43.13
49063;BME280;34876;51.464;-0.150;2022-09-21T12:13:58;102531.43;;;21.07;43.12
49063;BME280;34876;51.464;-0.150;2022-09-21T12:21:54;102521.52;;;21.13;42.98
49063;BME280;34876;51.464;-0.150;2022-09-21T12:29:34;102509.46;;;21.14;42.73
49063;BME280;34876;51.464;-0.150;2022-09-21T12:36:34;102505.59;;;21.22;42.71
49063;BME280;34876;51.464;-0.150;2022-09-21T12:44:16;102500.65;;;20.92;43.27
49063;BME280;34876;51.464;-0.150;2022-09-21T12:52:06;102491.08;;;21.12;42.85
49063;BME280;34876;51.464;-0.150;2022-09-21T13:00:17;102488.67;;;21.29;42.45
49063;BME280;34876;51.464;-0.150;2022-09-21T13:07:27;102477.41;;;21.16;42.68
49063;BME280;34876;51.464;-0.150;2022-09-21T13:16:01;102470.76;;;21.29;42.40
49063;BME280;34876;51.464;-0.150;2022-09-21T13:23:41;102463.07;;;21.27;41.52
49063;BME280;34876;51.464;-0.150;2022-09-21T13:31:50;102452.90;;;21.28;39.15
49063;BME280;34876;51.464;-0.150;2022-09-21T13:39:31;102448.25;;;21.07;42.47
49063;BME280;34876;51.464;-0.150;2022-09-21T13:47:11;102439.65;;;21.03;38.89
49063;BME280;34876;51.464;-0.150;2022-09-21T13:54:48;102437.21;;;21.18;42.51
49063;BME280;34876;51.464;-0.150;2022-09-21T14:02:30;102431.07;;;21.27;42.33
49063;BME280;34876;51.464;-0.150;2022-09-21T14:10:57;102425.13;;;21.28;42.25
49063;BME280;34876;51.464;-0.150;2022-09-21T14:18:36;102422.92;;;21.03;42.76
49063;BME280;34876;51.464;-0.150;2022-09-21T14:26:32;102419.54;;;20.97;41.53
49063;BME280;34876;51.464;-0.150;2022-09-21T14:34:24;102413.66;;;20.94;39.82
49063;BME280;34876;51.464;-0.150;2022-09-21T14:42:41;102402.64;;;20.96;42.67
49063;BME280;34876;51.464;-0.150;2022-09-21T14:50:23;102393.96;;;21.05;40.49
49063;BME280;34876;51.464;-0.150;2022-09-21T14:58:23;102386.99;;;21.21;42.20
49063;BME280;34876;51.464;-0.150;2022-09-21T15:06:20;102380.30;;;21.15;42.32
49063;BME280;34876;51.464;-0.150;2022-09-21T15:14:20;102373.68;;;20.98;38.22
49063;BME280;34876;51.464;-0.150;2022-09-21T15:22:41;102365.64;;;21.19;42.31
49063;BME280;34876;51.464;-0.150;2022-09-21T15:30:41;102363.83;;;21.16;42.36
49063;BME280;34876;51.464;-0.150;2022-09-21T15:38:38;102358.79;;;21.08;37.87
49063;BME280;34876;51.464;-0.150;2022-09-21T15:45:48;102351.73;;;21.14;42.33
49063;BME280;34876;51.464;-0.150;2022-09-21T15:53:24;102349.12;;;20.97;42.63
49063;BME280;34876;51.464;-0.150;2022-09-21T16:01:42;102340.65;;;21.30;41.90
49063;BME280;34876;51.464;-0.150;2022-09-21T16:09:33;102331.75;;;21.05;42.16
49063;BME280;34876;51.464;-0.150;2022-09-21T16:17:27;102329.81;;;21.15;42.24
49063;BME280;34876;51.464;-0.150;2022-09-21T16:25:35;102329.10;;;21.17;42.28
49063;BME280;34876;51.464;-0.150;2022-09-21T16:33:00;102326.87;;;21.14;42.37
49063;BME280;34876;51.464;-0.150;2022-09-21T16:40:30;102332.97;;;21.21;42.24
49063;BME280;34876;51.464;-0.150;2022-09-21T16:48:55;102337.56;;;21.10;42.54
49063;BME280;34876;51.464;-0.150;2022-09-21T16:55:59;102338.29;;;21.12;42.54
49063;BME280;34876;51.464;-0.150;2022-09-21T17:04:02;102343.75;;;21.07;42.64
49063;BME280;34876;51.464;-0.150;2022-09-21T17:11:42;102343.65;;;21.06;42.66
49063;BME280;34876;51.464;-0.150;2022-09-21T17:19:02;102346.11;;;21.03;42.73
49063;BME280;34876;51.464;-0.150;2022-09-21T17:26:43;102343.86;;;21.00;42.81
49063;BME280;34876;51.464;-0.150;2022-09-21T17:34:27;102339.69;;;21.00;42.85
49063;BME280;34876;51.464;-0.150;2022-09-21T17:42:06;102341.31;;;20.95;42.98
49063;BME280;34876;51.464;-0.150;2022-09-21T17:49:53;102346.05;;;20.92;43.11
49063;BME280;34876;51.464;-0.150;2022-09-21T17:58:06;102346.89;;;20.82;43.40
49063;BME280;34876;51.464;-0.150;2022-09-21T18:05:56;102355.65;;;20.90;43.29
49063;BME280;34876;51.464;-0.150;2022-09-21T18:14:22;102356.86;;;20.87;43.38
49063;BME280;34876;51.464;-0.150;2022-09-21T18:21:18;102365.37;;;20.84;43.52
49063;BME280;34876;51.464;-0.150;2022-09-21T18:29:43;102365.47;;;20.87;43.53
49063;BME280;34876;51.464;-0.150;2022-09-21T18:37:53;102375.03;;;18.89;49.32
49063;BME280;34876;51.464;-0.150;2022-09-21T18:45:40;102384.85;;;18.22;52.03
49063;BME280;34876;51.464;-0.150;2022-09-21T18:53:05;102386.89;;;18.23;53.22
49063;BME280;34876;51.464;-0.150;2022-09-21T19:01:00;102381.46;;;20.02;46.33
49063;BME280;34876;51.464;-0.150;2022-09-21T19:09:42;102378.67;;;20.75;44.26
49063;BME280;34876;51.464;-0.150;2022-09-21T19:18:14;102376.10;;;20.84;44.06
49063;BME280;34876;51.464;-0.150;2022-09-21T19:26:15;102381.97;;;20.91;43.93
49063;BME280;34876;51.464;-0.150;2022-09-21T19:34:12;102383.61;;;20.91;43.98
49063;BME280;34876;51.464;-0.150;2022-09-21T19:41:56;102385.27;;;20.94;43.96
49063;BME280;34876;51.464;-0.150;2022-09-21T19:50:23;102386.63;;;20.94;44.04
49063;BME280;34876;51.464;-0.150;2022-09-21T19:57:53;102392.59;;;20.93;44.12
49063;BME280;34876;51.464;-0.150;2022-09-21T20:04:47;102389.13;;;20.93;44.18
49063;BME280;34876;51.464;-0.150;2022-09-21T20:12:38;102389.48;;;20.94;44.26
49063;BME280;34876;51.464;-0.150;2022-09-21T20:20:49;102385.49;;;20.94;44.31
49063;BME280;34876;51.464;-0.150;2022-09-21T20:28:07;102382.39;;;20.93;44.39
49063;BME280;34876;51.464;-0.150;2022-09-21T20:36:27;102382.52;;;20.94;44.45
49063;BME280;34876;51.464;-0.150;2022-09-21T20:44:03;102374.24;;;20.94;44.47
49063;BME280;34876;51.464;-0.150;2022-09-21T20:51:23;102371.25;;;20.95;44.49
49063;BME280;34876;51.464;-0.150;2022-09-21T20:58:46;102370.95;;;20.96;44.51
49063;BME280;34876;51.464;-0.150;2022-09-21T21:06:17;102368.01;;;20.94;44.58
49063;BME280;34876;51.464;-0.150;2022-09-21T21:14:13;102368.50;;;20.96;44.58
49063;BME280;34876;51.464;-0.150;2022-09-21T21:22:43;102373.06;;;20.96;44.63
49063;BME280;34876;51.464;-0.150;2022-09-21T21:30:08;102373.43;;;20.95;44.68
49063;BME280;34876;51.464;-0.150;2022-09-21T21:38:01;102374.91;;;20.97;44.66
49063;BME280;34876;51.464;-0.150;2022-09-21T21:45:53;102371.07;;;20.96;44.71
49063;BME280;34876;51.464;-0.150;2022-09-21T21:53:52;102363.48;;;20.98;44.71
49063;BME280;34876;51.464;-0.150;2022-09-21T22:01:06;102357.72;;;20.96;44.79
49063;BME280;34876;51.464;-0.150;2022-09-21T22:08:22;102357.57;;;20.96;44.81
49063;BME280;34876;51.464;-0.150;2022-09-21T22:16:22;102356.95;;;20.96;44.84
49063;BME280;34876;51.464;-0.150;2022-09-21T22:24:43;102354.84;;;20.97;44.84
49063;BME280;34876;51.464;-0.150;2022-09-21T22:31:53;102347.65;;;20.98;44.83
49063;BME280;34876;51.464;-0.150;2022-09-21T22:39:53;102343.91;;;20.96;44.92
49063;BME280;34876;51.464;-0.150;2022-09-21T22:47:07;102340.53;;;20.99;44.87
49063;BME280;34876;51.464;-0.150;2022-09-21T22:55:03;102345.74;;;20.97;44.96
49063;BME280;34876;51.464;-0.150;2022-09-21T23:03:00;102339.20;;;20.96;45.03
49063;BME280;34876;51.464;-0.150;2022-09-21T23:11:13;102328.80;;;20.94;45.11
49063;BME280;34876;51.464;-0.150;2022-09-21T23:18:13;102329.70;;;20.96;45.11
49063;BME280;34876;51.464;-0.150;2022-09-21T23:26:24;102320.39;;;20.94;45.21
49063;BME280;34876;51.464;-0.150;2022-09-21T23:34:14;102316.28;;;20.94;45.25
49063;BME280;34876;51.464;-0.150;2022-09-21T23:41:24;102310.84;;;20.94;45.31
49063;BME280;34876;51.464;-0.150;2022-09-21T23:49:04;102308.37;;;20.95;45.31
49063;BME280;34876;51.464;-0.150;2022-09-21T23:56:14;102300.63;;;20.94;45.37
